Time;durP1;ratioP1;P1;durP2;ratioP2;P2;SDS_P1;SDS_P2;PMS_P1;PMS_P2;Temp;Humidity;BMP_temperature;BMP_pressure;BME280_temperature;BME280_humidity;BME280_pressure;Samples;Min_cycle;Max_cycle;Signal;HPM_P1;HPM_P2
2023/03/11 00:02:04;;;;;;;12.25;5.38;;;;;;;;;;10419098;27;20079;-57
2023/03/11 00:07:05;;;;;;;9.20;6.55;;;;;;;;;;10421092;27;20054;-57
2023/03/11 00:12:04;;;;;;;9.77;6.72;;;;;;;;;;10418678;27;20622;-58
2023/03/11 00:17:02;;;;;;;26.23;20.45;;;;;;;;;;10419213;27;20465;-56
2023/03/11 00:22:03;;;;;;;21.42;15.25;;;;;;;;;;10418109;27;20167;-58
2023/03/11 00:27:01;;;;;;;6.75;4.40;;;;;;;;;;10419390;27;20071;-56
2023/03/11 00:31:59;;;;;;;6.07;3.25;;;;;;;;;;10415578;27;20047;-57
2023/03/11 00:36:57;;;;;;;6.65;3.95;;;;;;;;;;10419342;27;20052;-58
2023/03/11 00:41:57;;;;;;;6.15;4.07;;;;;;;;;;10418650;27;20078;-57
2023/03/11 00:46:55;;;;;;;7.60;3.42;;;;;;;;;;10413775;27;20108;-57
2023/03/11 00:51:53;;;;;;;6.80;3.20;;;;;;;;;;10413346;27;20071;-57
2023/03/11 00:56:52;;;;;;;7.05;3.58;;;;;;;;;;10415366;27;20935;-57
2023/03/11 01:01:51;;;;;;;4.50;3.35;;;;;;;;;;10416399;27;20083;-57
2023/03/11 01:06:52;;;;;;;10.20;3.50;;;;;;;;;;10422963;27;20070;-58
2023/03/11 01:11:50;;;;;;;5.80;4.28;;;;;;;;;;10421509;27;20079;-58
2023/03/11 01:16:48;;;;;;;5.88;3.97;;;;;;;;;;10415800;27;20082;-57
2023/03/11 01:21:48;;;;;;;7.78;3.95;;;;;;;;;;10416273;27;20082;-58
2023/03/11 01:26:46;;;;;;;6.00;3.72;;;;;;;;;;10414857;27;20050;-58
2023/03/11 01:31:44;;;;;;;6.35;5.03;;;;;;;;;;10415529;27;20523;-58
2023/03/11 01:36:42;;;;;;;8.10;4.22;;;;;;;;;;10415744;27;20071;-58
2023/03/11 01:41:42;;;;;;;4.28;3.40;;;;;;;;;;10408837;27;20604;-57
2023/03/11 01:46:58;;;;;;;5.03;3.50;;;;;;;;;;10418958;27;20040;-57
2023/03/11 01:52:02;;;;;;;5.70;3.72;;;;;;;;;;10416056;27;20047;-57
2023/03/11 01:57:05;;;;;;;3.90;3.35;;;;;;;;;;10410582;27;20063;-58
2023/03/11 02:02:06;;;;;;;6.47;3.58;;;;;;;;;;10413502;27;20086;-57
2023/03/11 02:07:06;;;;;;;4.90;3.08;;;;;;;;;;10410196;27;20086;-55
2023/03/11 02:12:08;;;;;;;4.00;3.33;;;;;;;;;;10418508;27;20082;-57
2023/03/11 02:17:07;;;;;;;5.63;3.95;;;;;;;;;;10413067;27;20074;-57
2023/03/11 02:22:05;;;;;;;4.93;3.50;;;;;;;;;;10414637;27;20074;-57
2023/03/11 02:27:06;;;;;;;4.70;3.60;;;;;;;;;;10410502;27;20056;-57
2023/03/11 02:32:06;;;;;;;6.38;4.15;;;;;;;;;;10409396;27;20071;-56
2023/03/11 02:37:06;;;;;;;9.35;5.05;;;;;;;;;;10415212;27;20504;-57
2023/03/11 02:42:07;;;;;;;7.53;3.55;;;;;;;;;;10411808;28;20050;-57
2023/03/11 02:47:06;;;;;;;8.10;5.05;;;;;;;;;;10408942;28;20062;-57
2023/03/11 02:52:05;;;;;;;21.05;14.18;;;;;;;;;;10410300;27;20573;-56
2023/03/11 02:57:03;;;;;;;15.88;10.05;;;;;;;;;;10418951;27;20487;-59
2023/03/11 03:02:03;;;;;;;15.52;7.82;;;;;;;;;;10422709;27;20087;-57
2023/03/11 03:07:02;;;;;;;13.00;7.30;;;;;;;;;;10420380;27;20520;-57
2023/03/11 03:12:01;;;;;;;10.75;7.22;;;;;;;;;;10427658;27;20066;-58
2023/03/11 03:17:03;;;;;;;19.85;13.27;;;;;;;;;;10436050;27;20074;-55
2023/03/11 03:22:01;;;;;;;16.42;10.23;;;;;;;;;;10421325;27;20505;-57
2023/03/11 03:27:00;;;;;;;23.23;14.65;;;;;;;;;;10423777;27;20078;-58
2023/03/11 03:31:58;;;;;;;7.18;4.40;;;;;;;;;;10419841;27;20046;-57
2023/03/11 03:37:01;;;;;;;4.57;3.53;;;;;;;;;;10418305;27;20077;-57
2023/03/11 03:41:59;;;;;;;9.68;5.85;;;;;;;;;;10412878;27;20039;-57
2023/03/11 03:47:00;;;;;;;11.50;9.05;;;;;;;;;;10417268;27;20086;-58
2023/03/11 03:52:00;;;;;;;9.15;6.63;;;;;;;;;;10418420;27;20072;-57
2023/03/11 03:57:02;;;;;;;11.93;10.45;;;;;;;;;;10417182;27;20055;-57
2023/03/11 04:02:02;;;;;;;9.05;5.03;;;;;;;;;;10414775;28;20058;-57
2023/03/11 04:07:03;;;;;;;6.45;3.95;;;;;;;;;;10422650;27;20075;-58
2023/03/11 04:12:01;;;;;;;9.25;5.55;;;;;;;;;;10414216;28;20084;-57
2023/03/11 04:17:02;;;;;;;10.38;5.63;;;;;;;;;;10421939;28;20056;-58
2023/03/11 04:22:00;;;;;;;6.55;4.30;;;;;;;;;;10421312;28;20046;-58
2023/03/11 04:27:01;;;;;;;4.80;4.15;;;;;;;;;;10415504;28;20079;-57
2023/03/11 04:32:01;;;;;;;7.47;5.25;;;;;;;;;;10414889;28;20089;-58
2023/03/11 04:37:00;;;;;;;9.02;5.15;;;;;;;;;;10413341;28;20067;-57
2023/03/11 04:42:04;;;;;;;8.27;5.82;;;;;;;;;;10416504;28;20084;-58
2023/03/11 04:47:04;;;;;;;6.97;5.03;;;;;;;;;;10417646;28;20082;-58
2023/03/11 04:52:02;;;;;;;12.90;6.15;;;;;;;;;;10418907;28;20075;-56
2023/03/11 04:57:01;;;;;;;9.25;7.63;;;;;;;;;;10415669;28;20054;-58
2023/03/11 05:02:01;;;;;;;9.55;8.48;;;;;;;;;;10371652;27;1155707;-57
2023/03/11 05:06:59;;;;;;;10.13;7.25;;;;;;;;;;10418034;27;20075;-58
2023/03/11 05:11:58;;;;;;;6.88;5.80;;;;;;;;;;10413393;27;20044;-58
2023/03/11 05:16:57;;;;;;;8.88;6.28;;;;;;;;;;10412538;27;20083;-56
2023/03/11 05:21:57;;;;;;;7.72;6.55;;;;;;;;;;10403994;27;20097;-54
2023/03/11 05:26:57;;;;;;;18.65;13.13;;;;;;;;;;10396748;27;20528;-57
2023/03/11 05:31:56;;;;;;;14.73;13.23;;;;;;;;;;10417814;27;20078;-55
2023/03/11 05:36:54;;;;;;;13.40;9.27;;;;;;;;;;10408040;27;20072;-53
2023/03/11 05:41:55;;;;;;;10.13;9.00;;;;;;;;;;10409211;27;20067;-55
2023/03/11 05:46:55;;;;;;;7.72;6.60;;;;;;;;;;10410046;27;20087;-57
2023/03/11 05:51:54;;;;;;;11.45;10.07;;;;;;;;;;10422562;27;20082;-56
2023/03/11 05:56:57;;;;;;;10.32;8.00;;;;;;;;;;10411825;27;20090;-56
2023/03/11 06:01:56;;;;;;;12.00;10.75;;;;;;;;;;10413017;27;20082;-57
2023/03/11 06:06:55;;;;;;;10.95;9.85;;;;;;;;;;10419442;27;20078;-57
2023/03/11 06:11:55;;;;;;;11.70;8.57;;;;;;;;;;10408820;27;20071;-57
2023/03/11 06:17:00;;;;;;;11.27;10.15;;;;;;;;;;10414159;27;20086;-57
2023/03/11 06:21:58;;;;;;;15.63;12.18;;;;;;;;;;10407047;27;20144;-58
2023/03/11 06:26:56;;;;;;;11.32;8.57;;;;;;;;;;10403965;27;20083;-56
2023/03/11 06:31:58;;;;;;;7.68;6.88;;;;;;;;;;10405369;27;20086;-58
2023/03/11 06:36:58;;;;;;;6.30;5.70;;;;;;;;;;10411615;27;20792;-59
2023/03/11 06:41:56;;;;;;;7.40;6.18;;;;;;;;;;10409115;28;20066;-58
2023/03/11 06:46:57;;;;;;;8.77;7.05;;;;;;;;;;10417800;28;20606;-57
2023/03/11 06:51:55;;;;;;;12.40;10.95;;;;;;;;;;10410186;28;20079;-57
2023/03/11 06:56:55;;;;;;;17.52;15.63;;;;;;;;;;10409595;27;20078;-57
2023/03/11 07:01:54;;;;;;;13.82;11.23;;;;;;;;;;10409449;27;20752;-58
2023/03/11 07:06:52;;;;;;;14.30;9.98;;;;;;;;;;10403235;27;20555;-60
2023/03/11 07:11:52;;;;;;;27.83;18.33;;;;;;;;;;10418252;27;20071;-58
2023/03/11 07:16:58;;;;;;;19.70;12.50;;;;;;;;;;10406396;28;20075;-58
2023/03/11 07:22:06;;;;;;;18.13;13.77;;;;;;;;;;10402732;28;20071;-58
2023/03/11 07:27:04;;;;;;;8.18;6.43;;;;;;;;;;10403852;28;20133;-58
2023/03/11 07:32:04;;;;;;;7.68;6.50;;;;;;;;;;10408339;28;20078;-58
2023/03/11 07:37:03;;;;;;;8.90;7.20;;;;;;;;;;10409229;28;20083;-58
2023/03/11 07:42:01;;;;;;;7.95;7.18;;;;;;;;;;10415876;27;20481;-57
2023/03/11 07:47:06;;;;;;;7.25;6.30;;;;;;;;;;10422169;27;20524;-57
2023/03/11 07:52:07;;;;;;;7.97;7.18;;;;;;;;;;10425717;27;20051;-57
2023/03/11 07:57:06;;;;;;;7.88;7.13;;;;;;;;;;10419727;27;20492;-60
2023/03/11 08:02:05;;;;;;;7.00;5.90;;;;;;;;;;10418796;27;20083;-58
2023/03/11 08:07:03;;;;;;;7.43;5.13;;;;;;;;;;10419529;27;20078;-58
2023/03/11 08:12:02;;;;;;;4.65;4.18;;;;;;;;;;10418673;27;20073;-58
2023/03/11 08:17:00;;;;;;;6.35;5.85;;;;;;;;;;10419056;27;20469;-58
2023/03/11 08:22:00;;;;;;;6.05;4.22;;;;;;;;;;10417106;27;20079;-58
2023/03/11 08:26:59;;;;;;;8.07;4.63;;;;;;;;;;10419907;27;20090;-58
2023/03/11 08:31:57;;;;;;;4.53;4.07;;;;;;;;;;10419334;27;20071;-58
2023/03/11 08:36:55;;;;;;;7.10;5.82;;;;;;;;;;10417934;27;20083;-58
2023/03/11 08:41:54;;;;;;;6.90;5.38;;;;;;;;;;10416723;27;20059;-58
2023/03/11 08:46:53;;;;;;;9.18;5.55;;;;;;;;;;10412991;27;20078;-58
2023/03/11 08:51:51;;;;;;;5.30;4.80;;;;;;;;;;10411315;27;20066;-58
2023/03/11 08:56:49;;;;;;;5.50;5.00;;;;;;;;;;10416517;27;20528;-58
2023/03/11 09:01:48;;;;;;;5.43;4.10;;;;;;;;;;10417463;27;20071;-58
2023/03/11 09:06:47;;;;;;;8.70;5.55;;;;;;;;;;10415403;27;20067;-57
2023/03/11 09:11:46;;;;;;;6.43;4.30;;;;;;;;;;10417173;27;20482;-57
2023/03/11 09:16:44;;;;;;;6.28;3.00;;;;;;;;;;10414093;27;20075;-58
2023/03/11 09:21:43;;;;;;;4.60;3.30;;;;;;;;;;10416216;27;20066;-57
2023/03/11 09:26:41;;;;;;;6.63;4.70;;;;;;;;;;10415215;27;20106;-57
2023/03/11 09:31:39;;;;;;;5.25;3.05;;;;;;;;;;10420959;27;20079;-58
2023/03/11 09:36:40;;;;;;;4.10;3.63;;;;;;;;;;10415849;27;20093;-58
2023/03/11 09:41:42;;;;;;;4.30;3.75;;;;;;;;;;10414389;27;20509;-58
2023/03/11 09:47:23;;;;;;;4.30;3.17;;;;;;;;;;10414572;27;20075;-58
2023/03/11 09:52:25;;;;;;;3.90;3.50;;;;;;;;;;10411119;27;20551;-58
2023/03/11 09:57:27;;;;;;;5.50;4.50;;;;;;;;;;10412668;27;20078;-57
2023/03/11 10:02:26;;;;;;;5.18;4.20;;;;;;;;;;10415286;27;20519;-57
2023/03/11 10:07:27;;;;;;;5.20;4.80;;;;;;;;;;10414842;27;20075;-57
2023/03/11 10:12:33;;;;;;;4.20;3.80;;;;;;;;;;10415637;27;20063;-58
2023/03/11 10:17:40;;;;;;;5.47;4.22;;;;;;;;;;10414706;27;20059;-58
2023/03/11 10:22:41;;;;;;;5.80;5.00;;;;;;;;;;10409082;27;20465;-58
2023/03/11 10:27:43;;;;;;;4.78;4.35;;;;;;;;;;10412949;27;20082;-59
2023/03/11 10:32:44;;;;;;;4.57;3.90;;;;;;;;;;10413401;27;20086;-58
2023/03/11 10:37:44;;;;;;;5.03;4.32;;;;;;;;;;10412256;28;20067;-59
2023/03/11 10:42:48;;;;;;;4.45;4.05;;;;;;;;;;10410514;27;20097;-57
2023/03/11 10:47:46;;;;;;;4.50;4.10;;;;;;;;;;10413143;27;20085;-57
2023/03/11 10:53:03;;;;;;;5.13;4.72;;;;;;;;;;10411635;28;20074;-59
2023/03/11 10:58:07;;;;;;;8.95;4.55;;;;;;;;;;10406919;28;20525;-59
2023/03/11 11:03:05;;;;;;;5.43;4.00;;;;;;;;;;10408953;28;20062;-59
2023/03/11 11:08:05;;;;;;;4.90;3.78;;;;;;;;;;10411668;28;20071;-59
2023/03/11 11:13:16;;;;;;;5.03;3.13;;;;;;;;;;10413279;28;20078;-58
2023/03/11 11:18:18;;;;;;;5.00;4.20;;;;;;;;;;10415169;27;20093;-58
2023/03/11 11:23:25;;;;;;;3.40;3.10;;;;;;;;;;10419991;27;20070;-58
2023/03/11 11:28:23;;;;;;;3.35;3.03;;;;;;;;;;10420781;27;20070;-59
2023/03/11 11:33:24;;;;;;;2.78;2.58;;;;;;;;;;10418594;27;20074;-58
2023/03/11 11:38:24;;;;;;;2.78;2.58;;;;;;;;;;10415243;27;20499;-60
2023/03/11 11:43:25;;;;;;;2.83;2.60;;;;;;;;;;10418154;27;20070;-57
2023/03/11 11:48:26;;;;;;;4.18;3.17;;;;;;;;;;10415493;27;20067;-58
2023/03/11 11:53:28;;;;;;;3.45;3.15;;;;;;;;;;10414647;27;20075;-58
2023/03/11 11:58:27;;;;;;;5.28;3.92;;;;;;;;;;10414493;27;20102;-58
2023/03/11 12:03:37;;;;;;;3.55;3.20;;;;;;;;;;10432290;27;20089;-58
2023/03/11 12:08:38;;;;;;;4.10;3.50;;;;;;;;;;10416459;27;20078;-58
2023/03/11 12:13:53;;;;;;;9.60;5.85;;;;;;;;;;10418733;27;20078;-58
2023/03/11 12:18:56;;;;;;;4.80;3.55;;;;;;;;;;10417027;27;20067;-57
2023/03/11 12:24:00;;;;;;;5.95;4.53;;;;;;;;;;10418547;27;20063;-58
2023/03/11 12:29:01;;;;;;;6.13;5.53;;;;;;;;;;10416994;27;20066;-59
2023/03/11 12:34:02;;;;;;;4.90;4.50;;;;;;;;;;10417823;27;20826;-58
2023/03/11 12:39:02;;;;;;;6.13;5.63;;;;;;;;;;10416035;27;20071;-58
2023/03/11 12:44:03;;;;;;;6.28;5.43;;;;;;;;;;10418035;27;20515;-58
2023/03/11 12:49:11;;;;;;;5.70;5.20;;;;;;;;;;10416090;27;20066;-58
2023/03/11 12:54:27;;;;;;;5.65;4.57;;;;;;;;;;10415016;27;20082;-58
2023/03/11 12:59:49;;;;;;;8.10;4.00;;;;;;;;;;10416049;27;20074;-58
2023/03/11 13:04:55;;;;;;;7.75;3.58;;;;;;;;;;10400732;27;20449;-59
2023/03/11 13:10:01;;;;;;;3.50;3.20;;;;;;;;;;10412745;27;20067;-57
2023/03/11 13:15:14;;;;;;;2.53;2.33;;;;;;;;;;10416732;27;20074;-58
2023/03/11 13:20:27;;;;;;;2.10;1.90;;;;;;;;;;10415114;27;20535;-56
2023/03/11 13:25:47;;;;;;;2.45;2.13;;;;;;;;;;10410615;27;20107;-56
2023/03/11 13:30:51;;;;;;;3.00;2.67;;;;;;;;;;10408390;27;20071;-58
2023/03/11 13:35:57;;;;;;;2.53;2.33;;;;;;;;;;10411771;27;20063;-56
2023/03/11 13:40:55;;;;;;;2.75;2.47;;;;;;;;;;10414406;27;20066;-58
2023/03/11 13:45:57;;;;;;;3.03;2.30;;;;;;;;;;10414810;27;20075;-58
2023/03/11 13:50:58;;;;;;;4.35;3.50;;;;;;;;;;10416003;27;20071;-58
2023/03/11 13:55:57;;;;;;;4.72;4.28;;;;;;;;;;10413600;27;20067;-58
2023/03/11 14:00:57;;;;;;;5.38;3.55;;;;;;;;;;10414747;27;20504;-58
2023/03/11 14:05:57;;;;;;;3.35;2.67;;;;;;;;;;10414778;27;20083;-58
2023/03/11 14:10:56;;;;;;;2.47;1.88;;;;;;;;;;10415534;27;20090;-58
2023/03/11 14:16:00;;;;;;;4.45;3.50;;;;;;;;;;10415060;27;20078;-59
2023/03/11 14:20:59;;;;;;;5.00;3.42;;;;;;;;;;10411875;27;20416;-57
2023/03/11 14:26:05;;;;;;;2.72;2.53;;;;;;;;;;10413586;27;20094;-58
2023/03/11 14:31:05;;;;;;;5.45;2.58;;;;;;;;;;10413606;27;20504;-59
2023/03/11 14:36:05;;;;;;;28.77;19.83;;;;;;;;;;10413499;27;20075;-59
2023/03/11 14:41:05;;;;;;;8.45;7.28;;;;;;;;;;10413712;27;20080;-58
2023/03/11 14:46:05;;;;;;;47.47;32.38;;;;;;;;;;10414120;27;20063;-59
2023/03/11 14:51:05;;;;;;;36.55;22.83;;;;;;;;;;10417012;27;20184;-58
2023/03/11 14:56:06;;;;;;;48.40;27.73;;;;;;;;;;10421232;27;20428;-58
2023/03/11 15:01:10;;;;;;;56.90;33.40;;;;;;;;;;10422633;27;20090;-58
2023/03/11 15:06:09;;;;;;;26.77;17.25;;;;;;;;;;10422598;27;20072;-58
2023/03/11 15:11:14;;;;;;;19.65;15.90;;;;;;;;;;10416507;27;20055;-57
2023/03/11 15:16:23;;;;;;;10.45;9.20;;;;;;;;;;10416185;27;20071;-57
2023/03/11 15:21:22;;;;;;;7.05;6.38;;;;;;;;;;10420653;27;20266;-57
2023/03/11 15:26:22;;;;;;;10.48;9.38;;;;;;;;;;10420744;27;20700;-57
2023/03/11 15:31:30;;;;;;;8.50;6.45;;;;;;;;;;10419967;27;20082;-58
2023/03/11 15:36:29;;;;;;;16.05;9.95;;;;;;;;;;10420421;27;20074;-58
2023/03/11 15:41:27;;;;;;;8.25;6.95;;;;;;;;;;10418763;27;20071;-58
2023/03/11 15:46:25;;;;;;;11.40;7.70;;;;;;;;;;10419469;27;20524;-58
2023/03/11 15:51:25;;;;;;;29.35;18.25;;;;;;;;;;10420286;27;20067;-59
2023/03/11 15:56:24;;;;;;;20.83;14.00;;;;;;;;;;10413600;27;20495;-60
2023/03/11 16:01:27;;;;;;;31.73;21.23;;;;;;;;;;10419895;27;20075;-59
2023/03/11 16:06:26;;;;;;;32.70;22.15;;;;;;;;;;10418447;27;20075;-59
2023/03/11 16:11:26;;;;;;;11.30;10.10;;;;;;;;;;10419485;27;20098;-59
2023/03/11 16:16:24;;;;;;;12.95;11.25;;;;;;;;;;10417454;27;20062;-59
2023/03/11 16:21:24;;;;;;;12.98;8.43;;;;;;;;;;10419624;27;20086;-60
2023/03/11 16:26:23;;;;;;;10.80;8.15;;;;;;;;;;10417648;27;20062;-59
2023/03/11 16:31:21;;;;;;;5.22;4.57;;;;;;;;;;10418486;27;20079;-59
2023/03/11 16:36:20;;;;;;;10.38;7.45;;;;;;;;;;10419351;27;20456;-59
2023/03/11 16:41:18;;;;;;;6.00;5.38;;;;;;;;;;10418031;27;20062;-59
2023/03/11 16:46:18;;;;;;;4.22;3.80;;;;;;;;;;10415576;27;20074;-58
2023/03/11 16:51:16;;;;;;;10.77;6.03;;;;;;;;;;10416529;27;20075;-59
2023/03/11 16:56:14;;;;;;;6.15;4.28;;;;;;;;;;10418098;27;20067;-58
2023/03/11 17:01:12;;;;;;;7.65;5.78;;;;;;;;;;10416949;27;20477;-59
2023/03/11 17:06:12;;;;;;;8.65;7.40;;;;;;;;;;10415495;27;20036;-58
2023/03/11 17:11:14;;;;;;;10.75;6.03;;;;;;;;;;10415704;27;20473;-58
2023/03/11 17:16:12;;;;;;;7.55;6.32;;;;;;;;;;10415258;27;20075;-57
2023/03/11 17:21:13;;;;;;;4.45;3.95;;;;;;;;;;10416544;27;20060;-58
2023/03/11 17:26:12;;;;;;;4.53;3.55;;;;;;;;;;10416745;27;20113;-57
2023/03/11 17:31:11;;;;;;;5.55;4.70;;;;;;;;;;10412875;27;20476;-58
2023/03/11 17:36:12;;;;;;;6.53;3.00;;;;;;;;;;10415693;27;20078;-59
2023/03/11 17:41:13;;;;;;;4.75;3.08;;;;;;;;;;10415305;27;20111;-58
2023/03/11 17:46:13;;;;;;;6.72;3.28;;;;;;;;;;10414054;27;20061;-58
2023/03/11 17:51:12;;;;;;;6.78;3.47;;;;;;;;;;10415542;27;20075;-59
2023/03/11 17:56:13;;;;;;;3.90;3.40;;;;;;;;;;10415378;27;20071;-58
2023/03/11 18:01:12;;;;;;;6.45;3.50;;;;;;;;;;10415739;27;20515;-58
2023/03/11 18:06:11;;;;;;;5.35;3.75;;;;;;;;;;10413875;27;20557;-59
2023/03/11 18:11:11;;;;;;;6.85;3.75;;;;;;;;;;10407842;27;20075;-58
2023/03/11 18:16:12;;;;;;;7.43;5.30;;;;;;;;;;10411491;27;20064;-59
2023/03/11 18:21:11;;;;;;;10.50;7.03;;;;;;;;;;10414207;27;20523;-58
2023/03/11 18:26:10;;;;;;;4.68;3.45;;;;;;;;;;10413751;27;20075;-58
2023/03/11 18:31:10;;;;;;;4.40;3.25;;;;;;;;;;10413406;27;20492;-57
2023/03/11 18:36:12;;;;;;;9.98;4.68;;;;;;;;;;10413172;27;20079;-58
2023/03/11 18:41:11;;;;;;;9.40;7.63;;;;;;;;;;10414071;27;20093;-58
2023/03/11 18:46:11;;;;;;;10.52;6.50;;;;;;;;;;10413549;27;20470;-57
2023/03/11 18:51:10;;;;;;;7.70;5.72;;;;;;;;;;10412663;28;20075;-57
2023/03/11 18:56:09;;;;;;;8.82;4.78;;;;;;;;;;10413547;28;20089;-57
2023/03/11 19:01:07;;;;;;;6.05;4.47;;;;;;;;;;10413999;28;20531;-58
2023/03/11 19:06:08;;;;;;;3.47;3.13;;;;;;;;;;10410899;28;20062;-58
2023/03/11 19:11:06;;;;;;;5.47;3.97;;;;;;;;;;10412585;28;20492;-58
2023/03/11 19:16:05;;;;;;;3.63;3.08;;;;;;;;;;10411475;28;20090;-57
2023/03/11 19:21:04;;;;;;;8.10;6.80;;;;;;;;;;10413697;27;20071;-59
2023/03/11 19:26:04;;;;;;;5.30;3.78;;;;;;;;;;10412464;28;20071;-57
2023/03/11 19:31:03;;;;;;;4.97;3.22;;;;;;;;;;10411945;27;20106;-57
2023/03/11 19:36:02;;;;;;;9.00;4.47;;;;;;;;;;10413468;27;20089;-57
2023/03/11 19:41:01;;;;;;;7.63;5.07;;;;;;;;;;10420033;27;20070;-58
2023/03/11 19:46:01;;;;;;;6.68;5.25;;;;;;;;;;10420056;27;20496;-58
2023/03/11 19:50:59;;;;;;;10.13;4.25;;;;;;;;;;10418704;27;20115;-58
2023/03/11 19:55:57;;;;;;;5.78;4.07;;;;;;;;;;10418913;27;20070;-58
2023/03/11 20:00:56;;;;;;;5.38;3.30;;;;;;;;;;10421139;27;20180;-58
2023/03/11 20:05:58;;;;;;;4.15;3.22;;;;;;;;;;10418887;27;20071;-57
2023/03/11 20:11:00;;;;;;;2.95;2.65;;;;;;;;;;10413986;27;20468;-58
2023/03/11 20:16:03;;;;;;;4.28;3.78;;;;;;;;;;10414286;27;20074;-57
2023/03/11 20:21:06;;;;;;;15.23;4.00;;;;;;;;;;10413034;27;20067;-58
2023/03/11 20:26:04;;;;;;;10.02;2.20;;;;;;;;;;10414681;27;20082;-58
2023/03/11 20:31:07;;;;;;;14.40;8.88;;;;;;;;;;10417765;27;20087;-58
2023/03/11 20:36:08;;;;;;;67.40;32.78;;;;;;;;;;10414346;27;20461;-58
2023/03/11 20:41:08;;;;;;;15.07;8.10;;;;;;;;;;10416073;27;20066;-56
2023/03/11 20:46:07;;;;;;;5.57;3.63;;;;;;;;;;10416754;27;20067;-58
2023/03/11 20:51:08;;;;;;;8.82;5.55;;;;;;;;;;10416342;27;20079;-57
2023/03/11 20:56:08;;;;;;;13.82;7.45;;;;;;;;;;10418171;27;20515;-57
2023/03/11 21:01:12;;;;;;;9.57;6.60;;;;;;;;;;10418419;27;20479;-58
2023/03/11 21:06:17;;;;;;;7.40;4.15;;;;;;;;;;10417915;27;20067;-57
2023/03/11 21:11:15;;;;;;;14.23;9.50;;;;;;;;;;10416040;27;20570;-58
2023/03/11 21:16:13;;;;;;;25.35;13.50;;;;;;;;;;10416260;27;20075;-59
2023/03/11 21:21:12;;;;;;;15.07;8.32;;;;;;;;;;10416794;27;20074;-59
2023/03/11 21:26:12;;;;;;;24.63;13.82;;;;;;;;;;10416971;27;20074;-56
2023/03/11 21:31:12;;;;;;;14.35;9.55;;;;;;;;;;10413952;27;20083;-58
2023/03/11 21:36:11;;;;;;;16.10;9.25;;;;;;;;;;10414230;27;20082;-57
2023/03/11 21:41:10;;;;;;;9.27;4.43;;;;;;;;;;10414683;27;20067;-58
2023/03/11 21:46:10;;;;;;;8.85;5.22;;;;;;;;;;10414836;27;20075;-57
2023/03/11 21:51:09;;;;;;;21.15;12.35;;;;;;;;;;10417737;27;20086;-58
2023/03/11 21:56:08;;;;;;;14.30;5.57;;;;;;;;;;10415408;27;20504;-59
2023/03/11 22:01:07;;;;;;;13.80;8.68;;;;;;;;;;10415106;27;20098;-57
2023/03/11 22:06:08;;;;;;;23.92;13.65;;;;;;;;;;10414511;27;20086;-54
2023/03/11 22:11:07;;;;;;;23.05;12.48;;;;;;;;;;10415876;27;20489;-56
2023/03/11 22:16:06;;;;;;;19.92;9.75;;;;;;;;;;10414275;27;20079;-57
2023/03/11 22:21:05;;;;;;;16.75;10.27;;;;;;;;;;10413238;27;20079;-56
2023/03/11 22:26:07;;;;;;;17.42;9.75;;;;;;;;;;10414163;27;20071;-56
2023/03/11 22:31:06;;;;;;;15.40;8.27;;;;;;;;;;10412409;27;20079;-55
2023/03/11 22:36:06;;;;;;;12.07;8.15;;;;;;;;;;10411635;27;20082;-55
2023/03/11 22:41:06;;;;;;;16.08;4.97;;;;;;;;;;10412316;27;20496;-56
2023/03/11 22:46:06;;;;;;;11.57;5.00;;;;;;;;;;10411383;27;20051;-57
2023/03/11 22:51:05;;;;;;;11.77;5.72;;;;;;;;;;10413982;27;20300;-58
2023/03/11 22:56:06;;;;;;;12.38;5.28;;;;;;;;;;10413171;27;20074;-59
2023/03/11 23:01:06;;;;;;;10.57;4.82;;;;;;;;;;10413601;27;20090;-57
2023/03/11 23:06:05;;;;;;;12.80;6.95;;;;;;;;;;10411902;28;20075;-58
2023/03/11 23:11:05;;;;;;;7.85;6.03;;;;;;;;;;10414880;27;20094;-57
2023/03/11 23:16:04;;;;;;;7.65;5.63;;;;;;;;;;10415669;27;20082;-58
2023/03/11 23:21:04;;;;;;;8.93;5.60;;;;;;;;;;10421660;27;20075;-55
2023/03/11 23:26:06;;;;;;;8.30;5.40;;;;;;;;;;10421245;27;20070;-55
2023/03/11 23:31:04;;;;;;;10.27;7.78;;;;;;;;;;10418447;27;20075;-54
2023/03/11 23:36:05;;;;;;;11.68;7.95;;;;;;;;;;10421383;27;20082;-58
2023/03/11 23:41:05;;;;;;;13.80;7.25;;;;;;;;;;10420469;27;20440;-57
2023/03/11 23:46:03;;;;;;;9.38;7.00;;;;;;;;;;10420076;27;20074;-59
2023/03/11 23:51:01;;;;;;;16.05;7.25;;;;;;;;;;10419949;27;20078;-55
2023/03/11 23:56:01;;;;;;;11.18;8.30;;;;;;;;;;10420277;27;20082;-55
